• Join FlightAware (Why Join?)
  • Login
  • US Flag 
10:33AM EDT


 

Airport Tracker/Info


-or-


 

Live Flight TrackerFlight Track Log ✈ N1926A ✈ 16-Aug-2013 ✈ KVBT - KECP

Flight Track Log - Related Links

Times and Time Zones

All times are in EDT time to prevent confusion due to time zone crossing. See the N1926A flight status page for this flight to view local times or setup timezone preferences in your user account.

Time Position Orientation Groundspeed Altitude Reporting Facility
EDT Latitude Longitude Course Direction KTS MPH feet Rate Location/Type
06:14PM 36.3919 -94.1828 127° Southeast 162 186 5,600  Level Memphis Center
06:15PM 36.3617 -94.1503 139° Southeast 161 185 7,800 2,100 Climbing Memphis Center
06:16PM 36.3292 -94.1156 139° Southeast 161 185 9,900 2,040 Climbing Memphis Center
06:17PM 36.2950 -94.0753 136° Southeast 161 185 11,900 2,100 Climbing Memphis Center
06:18PM 36.2650 -94.0300 129° Southeast 161 185 14,100 1,980 Climbing Memphis Center
06:19PM 36.0647 -93.7765 127° Southeast  Level Estimated
06:19PM 36.2372 -93.9825 126° Southeast 166 191 15,900  Level Memphis Center
06:20PM 36.2075 -93.9350 128° Southeast 173 199 17,700 1,500 Climbing Memphis Center
06:21PM 36.1756 -93.8847 128° Southeast 178 205 19,000 1,260 Climbing Memphis Center
06:22PM 36.1497 -93.8347 123° Southeast 183 211 20,300 1,260 Climbing Memphis Center
06:23PM 36.1178 -93.7819 127° Southeast 188 216 21,600 1,260 Climbing Memphis Center
06:24PM 36.0858 -93.7319 128° Southeast 188 216 22,900 1,200 Climbing Memphis Center
06:25PM 36.0497 -93.6789 130° Southeast 188 216 24,000 1,020 Climbing Memphis Center
06:26PM 36.0136 -93.6236 129° Southeast 193 222 25,000 480 Climbing Memphis Center
06:27PM 35.9694 -93.5603 131° Southeast 218 251 25,000  Level Memphis Center
06:28PM 35.9233 -93.4867 128° Southeast 249 287 25,000  Level Memphis Center
06:29PM 35.8731 -93.4106 129° Southeast 267 307 25,000  Level Memphis Center
06:30PM 35.8272 -93.3319 126° Southeast 285 328 25,000  Level Memphis Center
06:31PM 35.7769 -93.2536 128° Southeast 285 328 25,000  Level Memphis Center
06:32PM 35.7264 -93.1775 129° Southeast 285 328 25,000  Level Memphis Center
06:33PM 35.6739 -93.1017 130° Southeast 285 328 25,000  Level Memphis Center
06:34PM 35.6233 -93.0286 130° Southeast 280 322 25,000  Level Memphis Center
06:35PM 35.5708 -92.9528 130° Southeast 288 331 25,000  Level Memphis Center
06:36PM 35.5242 -92.8850 130° Southeast 288 331 25,000  Level Memphis Center
06:37PM 35.4736 -92.8019 127° Southeast 288 331 25,000  Level Memphis Center
06:38PM 35.4250 -92.7242 127° Southeast 293 337 25,000  Level Memphis Center
06:39PM 35.3744 -92.6386 126° Southeast 298 343 25,000  Level Memphis Center
06:40PM 35.3236 -92.5686 132° Southeast 292 336 25,000  Level Memphis Center
06:41PM 35.2750 -92.4936 128° Southeast 287 330 25,000  Level Memphis Center
06:42PM 35.2242 -92.4186 130° Southeast 287 330 25,000  Level Memphis Center
06:43PM 35.1731 -92.3461 131° Southeast 287 330 25,000  Level Memphis Center
06:44PM 35.1219 -92.2714 130° Southeast 287 330 25,000  Level Memphis Center
06:45PM 35.0731 -92.1967 129° Southeast 287 330 25,000  Level Memphis Center
06:46PM 35.0219 -92.1219 130° Southeast 287 330 25,000  Level Memphis Center
06:47PM 34.9711 -92.0447 129° Southeast 287 330 25,000  Level Memphis Center
06:48PM 34.9239 -91.9706 128° Southeast 287 330 25,000  Level Memphis Center
06:49PM 34.8706 -91.8961 131° Southeast 287 330 25,000  Level Memphis Center
06:50PM 34.8236 -91.8194 127° Southeast 287 330 25,000  Level Memphis Center
06:51PM 34.7722 -91.7478 131° Southeast 287 330 25,000  Level Memphis Center
06:52PM 34.7189 -91.6658 128° Southeast 287 330 25,000  Level Memphis Center
06:53PM 34.6717 -91.5919 128° Southeast 281 323 25,000  Level Memphis Center
06:54PM 34.6161 -91.5156 131° Southeast 286 329 25,000  Level Memphis Center
06:55PM 34.5667 -91.4467 131° Southeast 280 322 25,000  Level Memphis Center
06:56PM 34.5150 -91.3728 130° Southeast 286 329 25,000  Level Memphis Center
06:57PM 34.4656 -91.3019 130° Southeast 286 329 25,000  Level Memphis Center
06:58PM 34.4119 -91.2258 130° Southeast 286 329 25,000  Level Memphis Center
06:59PM 34.3600 -91.1547 131° Southeast 286 329 25,000  Level Memphis Center
07:00PM 34.3083 -91.0814 130° Southeast 286 329 25,000  Level Memphis Center
07:01PM 34.2586 -91.0081 129° Southeast 286 329 25,000  Level Memphis Center
07:02PM 34.2131 -90.9450 131° Southeast 286 329 25,000  Level Memphis Center
07:03PM 34.1611 -90.8767 133° Southeast 281 323 25,000  Level Memphis Center
07:04PM 34.1114 -90.8061 130° Southeast 281 323 25,000  Level Memphis Center
07:05PM 34.0617 -90.7333 130° Southeast 281 323 25,000  Level Memphis Center
07:06PM 34.0117 -90.6628 131° Southeast 281 323 25,000  Level Memphis Center
07:07PM 33.9597 -90.5875 130° Southeast 281 323 25,000  Level Memphis Center
07:08PM 33.9097 -90.5150 130° Southeast 281 323 25,000  Level Memphis Center
07:09PM 33.8575 -90.4422 131° Southeast 281 323 25,000  Level Memphis Center
07:10PM 33.8094 -90.3672 128° Southeast 281 323 25,000  Level Memphis Center
07:11PM 33.7575 -90.2947 131° Southeast 281 323 25,000  Level Memphis Center
07:12PM 33.7072 -90.2247 131° Southeast 281 323 25,000  Level Memphis Center
07:13PM 33.6569 -90.1550 131° Southeast 281 323 25,000  Level Memphis Center
07:14PM 33.6047 -90.0828 131° Southeast 281 323 25,000  Level Memphis Center
07:15PM 33.5522 -90.0133 132° Southeast 281 323 25,000  Level Memphis Center
07:16PM 33.5019 -89.9411 130° Southeast 281 323 25,000  Level Memphis Center
07:17PM 33.4517 -89.8692 130° Southeast 281 323 25,000  Level Memphis Center
07:18PM 33.4014 -89.7997 131° Southeast 281 323 25,000  Level Memphis Center
07:19PM 33.3508 -89.7306 131° Southeast 281 323 25,000  Level Memphis Center
07:20PM 33.3003 -89.6614 131° Southeast 281 323 25,000  Level Memphis Center
07:21PM 33.2519 -89.5897 129° Southeast 281 323 25,000  Level Memphis Center
07:22PM 33.1994 -89.5206 132° Southeast 281 323 25,000  Level Memphis Center
07:23PM 33.1486 -89.4517 131° Southeast 281 323 25,000  Level Memphis Center
07:24PM 33.0981 -89.3828 131° Southeast 281 323 25,000  Level Memphis Center
07:25PM 33.0475 -89.3089 129° Southeast 281 323 25,000  Level Memphis Center
07:26PM 32.9944 -89.2378 132° Southeast 281 323 25,000  Level Memphis Center
07:27PM 32.9417 -89.1617 130° Southeast 281 323 25,000  Level Memphis Center
07:28PM 32.8908 -89.0906 130° Southeast 281 323 25,000  Level Memphis Center
07:29PM 32.8381 -89.0244 134° Southeast 281 323 25,000  Level Memphis Center
07:30PM 32.7850 -88.9536 132° Southeast 281 323 25,000  Level Memphis Center
07:31PM 32.7342 -88.8828 130° Southeast 281 323 25,000  Level Memphis Center
07:32PM 32.6811 -88.8122 132° Southeast 281 323 25,000  Level Memphis Center
07:33PM 32.6300 -88.7417 131° Southeast 281 323 25,000  Level Memphis Center
07:34PM 32.5728 -88.6736 135° Southeast 281 323 25,000  Level Memphis Center
07:35PM 32.5197 -88.6056 133° Southeast 281 323 25,000  Level Memphis Center
07:37PM 32.4264 -88.4828 132° Southeast 299 344 25,000  Level Atlanta Center
07:38PM 32.3747 -88.4089 130° Southeast 299 344 25,000  Level Atlanta Center
07:39PM 32.3231 -88.3328 129° Southeast 294 338 25,000  Level Atlanta Center
07:40PM 32.2711 -88.2639 132° Southeast 289 333 25,000  Level Atlanta Center
07:41PM 32.2194 -88.1878 129° Southeast 289 333 25,000  Level Atlanta Center
07:42PM 32.1633 -88.1189 134° Southeast 289 333 25,000  Level Atlanta Center
07:43PM 32.1072 -88.0478 133° Southeast 289 333 25,000  Level Atlanta Center
07:44PM 32.0553 -87.9792 132° Southeast 289 333 25,000  Level Atlanta Center
07:45PM 32.0031 -87.9108 132° Southeast 282 325 25,000 -120 Level Atlanta Center
07:46PM 31.9511 -87.8400 131° Southeast 282 325 24,800 -360 Descending Atlanta Center
07:47PM 31.8950 -87.7667 132° Southeast 282 325 24,300 -420 Descending Atlanta Center
07:48PM 31.8386 -87.6936 132° Southeast 289 333 24,000 -180 Descending Atlanta Center
07:49PM 31.7867 -87.6181 129° Southeast 294 338 24,000  Level Atlanta Center
07:50PM 31.7325 -87.5453 131° Southeast 294 338 24,000  Level Atlanta Center
07:51PM 31.6761 -87.4697 131° Southeast 289 333 24,000  Level Atlanta Center
07:53PM 31.5447 -87.3094 134° Southeast 300 345 24,000  Level Jacksonville Center
07:54PM 31.4928 -87.2411 132° Southeast 293 337 24,000  Level Jacksonville Center
07:55PM 31.4367 -87.1706 133° Southeast 288 331 24,000 -240 Level Jacksonville Center
07:56PM 31.3869 -87.1000 130° Southeast 283 326 23,600 -6,540 Descending Jacksonville Center
07:57PM 31.3244 -87.0292 136° Southeast 291 335 11,000 -1,440 Descending Jacksonville Center
07:58PM 31.2625 -86.9486 132° Southeast 306 352 20,800 4,260 Climbing Jacksonville Center
07:59PM 31.2042 -86.8733 132° Southeast 311 358 19,600 -1,140 Descending Jacksonville Center
08:00PM 31.1439 -86.7981 133° Southeast 306 352 18,600 -960 Descending Jacksonville Center
08:01PM 31.0897 -86.7278 132° Southeast 301 346 17,700 -1,080 Descending Jacksonville Center
08:02PM 31.0356 -86.6578 132° Southeast 296 341 16,500 -1,200 Descending Jacksonville Center
08:03PM 30.9831 -86.5928 133° Southeast 304 350 15,400 -1,200 Descending Jacksonville Center
08:04PM 30.9308 -86.5228 131° Southeast 298 343 14,200 -1,080 Descending Jacksonville Center
08:05PM 30.8831 -86.4458 126° Southeast 292 336 13,300 -780 Descending Jacksonville Center
08:06PM 30.8389 -86.3767 127° Southeast 286 329 12,700 -480 Descending Jacksonville Center
08:07PM 30.7969 -86.3072 125° Southeast 273 314 12,400 -480 Descending Jacksonville Center
08:08PM 30.7550 -86.2381 125° Southeast 273 314 11,800 -600 Descending Jacksonville Center
08:09PM 30.7236 -86.1619 116° Southeast 268 308 11,300 -600 Descending Jacksonville Center
08:10PM 30.6958 -86.0983 117° Southeast 239 275 10,600 -1,080 Descending Jacksonville Center
08:11PM 30.6617 -86.0514 130° Southeast 211 243 9,200 -1,500 Descending Jacksonville Center
08:12PM 30.6272 -86.0067 132° Southeast 191 220 7,700 -1,560 Descending Jacksonville Center
08:13PM 30.6011 -85.9625 124° Southeast 183 211 6,100 -1,560 Descending Jacksonville Center
08:14PM 30.5689 -85.9203 132° Southeast 177 204 4,600 -1,200 Descending Jacksonville Center
08:15PM 30.5297 -85.8903 147° Southeast 167 192 3,700 -840 Descending Jacksonville Center
08:16PM 30.4928 -85.8625 147° Southeast 162 186 3,000 -900 Descending Jacksonville Center
08:17PM 30.4539 -85.8372 151° Southeast 162 186 2,000 -1,020 Descending Jacksonville Center
08:18PM 30.4144 -85.8217 161° South 156 180 1,000 -780 Descending Jacksonville Center
08:19PM 30.3794 -85.8061 159° South 145 167 500 -420 Descending Jacksonville Center
08:20PM 30.3400 -85.7903 161° South 139 160 200 -300 Descending Jacksonville Center
08:22PM 30.3500 -85.7833 North  Level FlightAware Approximate